Time;durP1;ratioP1;P1;durP2;ratioP2;P2;SDS_P1;SDS_P2;PMS_P1;PMS_P2;Temp;Humidity;BMP_temperature;BMP_pressure;BME280_temperature;BME280_humidity;BME280_pressure;Samples;Min_cycle;Max_cycle;Signal;HPM_P1;HPM_P2
2021/05/22 00:00:20;;;;;;;;;;;;;;;17.83;51.86;99884.69;5093142;28;19965;-38
2021/05/22 00:02:46;;;;;;;;;;;;;;;17.82;51.80;99880.38;5092856;28;20011;-38
2021/05/22 00:05:11;;;;;;;;;;;;;;;17.71;52.27;99883.97;5093047;28;19954;-38
2021/05/22 00:07:36;;;;;;;;;;;;;;;17.69;51.86;99870.78;5093085;28;19912;-38
2021/05/22 00:10:04;;;;;;;;;;;;;;;17.63;52.21;99871.75;5092819;28;19919;-38
2021/05/22 00:12:30;;;;;;;;;;;;;;;17.78;51.97;99879.22;5092704;28;19916;-37
2021/05/22 00:14:55;;;;;;;;;;;;;;;17.67;52.29;99883.66;5092783;28;19956;-37
2021/05/22 00:17:21;;;;;;;;;;;;;;;17.68;52.48;99877.19;5092660;28;19967;-37
2021/05/22 00:19:46;;;;;;;;;;;;;;;17.39;53.24;99892.63;5092808;28;19912;-38
2021/05/22 00:22:11;;;;;;;;;;;;;;;17.28;54.00;99904.28;5092543;28;19920;-38
2021/05/22 00:24:37;;;;;;;;;;;;;;;17.25;53.23;99899.38;5112799;28;19912;-38
2021/05/22 00:27:02;;;;;;;;;;;;;;;16.99;54.84;99890.91;5111951;28;19962;-38
2021/05/22 00:29:27;;;;;;;;;;;;;;;17.07;53.60;99897.75;5112896;28;19911;-38
2021/05/22 00:31:53;;;;;;;;;;;;;;;17.05;54.05;99902.56;5111661;28;19993;-38
2021/05/22 00:34:18;;;;;;;;;;;;;;;17.07;54.40;99901.25;5112788;28;19919;-37
2021/05/22 00:36:43;;;;;;;;;;;;;;;17.12;53.67;99904.03;5112664;28;19920;-38
2021/05/22 00:39:08;;;;;;;;;;;;;;;17.12;54.03;99908.59;5112827;28;19931;-38
2021/05/22 00:41:34;;;;;;;;;;;;;;;16.97;54.67;99909.94;5112606;28;19912;-37
2021/05/22 00:43:59;;;;;;;;;;;;;;;16.81;54.81;99914.22;5112531;28;19950;-38
2021/05/22 00:46:24;;;;;;;;;;;;;;;16.73;55.13;99911.88;5112859;27;19957;-37
2021/05/22 00:48:50;;;;;;;;;;;;;;;16.51;55.59;99914.44;5112577;28;19919;-38
2021/05/22 00:51:15;;;;;;;;;;;;;;;16.66;55.65;99913.94;5098839;28;19916;-38
2021/05/22 00:53:40;;;;;;;;;;;;;;;16.76;55.06;99918.69;5092318;28;19912;-38
2021/05/22 00:56:05;;;;;;;;;;;;;;;16.88;54.86;99913.28;5092191;28;19948;-38
2021/05/22 00:58:32;;;;;;;;;;;;;;;16.68;55.06;99919.03;5091992;28;19912;-38
2021/05/22 01:00:58;;;;;;;;;;;;;;;16.77;54.53;99914.91;5091857;28;19919;-38
2021/05/22 01:03:24;;;;;;;;;;;;;;;16.55;55.47;99910.22;5091894;28;20355;-38
2021/05/22 01:05:49;;;;;;;;;;;;;;;16.55;55.57;99917.47;5092154;28;19923;-38
2021/05/22 01:08:16;;;;;;;;;;;;;;;16.66;54.84;99905.03;5091708;28;19912;-38
2021/05/22 01:10:42;;;;;;;;;;;;;;;16.81;54.81;99916.91;5091966;28;20354;-38
2021/05/22 01:13:07;;;;;;;;;;;;;;;16.84;54.52;99920.19;5091834;28;20019;-38
2021/05/22 01:15:33;;;;;;;;;;;;;;;16.78;54.72;99919.25;5090911;28;19927;-38
2021/05/22 01:17:58;;;;;;;;;;;;;;;16.73;55.18;99916.44;5092268;28;20342;-38
2021/05/22 01:20:29;;;;;;;;;;;;;;;16.54;55.67;99921.19;5092246;28;19919;-38
2021/05/22 01:22:56;;;;;;;;;;;;;;;16.43;55.35;99914.81;5092185;28;19916;-38
2021/05/22 01:25:24;;;;;;;;;;;;;;;16.33;54.10;99923.47;5091922;28;19920;-38
2021/05/22 01:27:50;;;;;;;;;;;;;;;16.35;54.35;99913.28;5091942;28;20299;-37
2021/05/22 01:30:15;;;;;;;;;;;;;;;16.15;55.31;99919.06;5090814;28;19912;-37
2021/05/22 01:32:41;;;;;;;;;;;;;;;16.35;55.63;99921.34;5092374;28;19912;-37
2021/05/22 01:35:06;;;;;;;;;;;;;;;16.45;55.33;99915.41;5091808;28;20341;-37
2021/05/22 01:37:31;;;;;;;;;;;;;;;16.41;54.99;99916.91;5091787;28;20332;-38
2021/05/22 01:39:57;;;;;;;;;;;;;;;16.39;54.90;99909.09;5092012;28;19947;-38
2021/05/22 01:42:22;;;;;;;;;;;;;;;16.30;55.06;99907.84;5091820;28;19992;-37
2021/05/22 01:44:48;;;;;;;;;;;;;;;16.17;55.56;99914.28;5091665;28;19939;-38
2021/05/22 01:47:13;;;;;;;;;;;;;;;16.11;55.87;99909.84;5091852;28;19918;-37
2021/05/22 01:49:38;;;;;;;;;;;;;;;16.12;55.74;99907.97;5090469;28;20003;-38
2021/05/22 01:52:04;;;;;;;;;;;;;;;16.06;55.85;99903.56;5091701;28;19923;-38
2021/05/22 01:54:29;;;;;;;;;;;;;;;15.94;56.27;99911.63;5090355;28;19935;-38
2021/05/22 01:56:54;;;;;;;;;;;;;;;15.67;56.30;99906.72;5090199;28;19916;-37
2021/05/22 01:59:19;;;;;;;;;;;;;;;15.74;56.60;99909.28;5091591;28;19961;-37
2021/05/22 02:01:48;;;;;;;;;;;;;;;15.57;56.43;99895.72;5091291;28;19919;-37
2021/05/22 02:04:13;;;;;;;;;;;;;;;15.68;56.71;99896.78;5090321;28;19923;-37
2021/05/22 02:06:40;;;;;;;;;;;;;;;15.83;56.18;99903.34;5090335;28;19912;-37
2021/05/22 02:09:05;;;;;;;;;;;;;;;16.02;55.43;99885.22;5091498;28;20021;-37
2021/05/22 02:11:35;;;;;;;;;;;;;;;15.95;56.07;99892.59;5091655;28;20011;-37
2021/05/22 02:14:00;;;;;;;;;;;;;;;16.07;55.03;99892.59;5091262;28;20410;-37
2021/05/22 02:16:27;;;;;;;;;;;;;;;15.96;55.42;99893.41;5090219;28;19951;-37
2021/05/22 02:18:53;;;;;;;;;;;;;;;16.00;54.77;99887.34;5091843;28;20008;-37
2021/05/22 02:21:18;;;;;;;;;;;;;;;15.98;54.38;99894.00;5091462;28;20303;-37
2021/05/22 02:23:47;;;;;;;;;;;;;;;15.96;54.97;99896.09;5104620;28;20011;-38
2021/05/22 02:26:12;;;;;;;;;;;;;;;15.92;55.21;99901.13;5110564;28;19912;-38
2021/05/22 02:28:41;;;;;;;;;;;;;;;15.43;55.88;99906.66;5110305;28;20422;-38
2021/05/22 02:31:06;;;;;;;;;;;;;;;15.38;56.81;99909.25;5111725;28;19995;-38
2021/05/22 02:33:31;;;;;;;;;;;;;;;15.36;56.53;99910.50;5111810;28;20049;-38
2021/05/22 02:35:57;;;;;;;;;;;;;;;15.41;56.92;99918.69;5111898;28;20371;-38
2021/05/22 02:38:24;;;;;;;;;;;;;;;15.18;57.36;99920.25;5110121;28;19916;-38
2021/05/22 02:40:50;;;;;;;;;;;;;;;15.53;56.76;99924.88;5111568;28;19912;-38
2021/05/22 02:43:15;;;;;;;;;;;;;;;15.68;56.44;99926.28;5110185;28;20452;-39
2021/05/22 02:45:41;;;;;;;;;;;;;;;15.63;56.48;99926.97;5111435;28;20393;-38
2021/05/22 02:48:08;;;;;;;;;;;;;;;15.75;55.74;99924.34;5111576;28;19940;-38
2021/05/22 02:50:33;;;;;;;;;;;;;;;15.76;55.69;99920.59;5114106;28;20367;-38
2021/05/22 02:52:59;;;;;;;;;;;;;;;15.76;55.96;99924.13;5113912;28;19912;-37
2021/05/22 02:55:24;;;;;;;;;;;;;;;15.82;55.82;99933.06;5115168;28;19923;-37
2021/05/22 02:57:50;;;;;;;;;;;;;;;15.88;55.71;99937.53;5113743;28;19916;-38
2021/05/22 03:00:15;;;;;;;;;;;;;;;15.92;55.61;99927.97;5115216;28;19917;-38
2021/05/22 03:02:41;;;;;;;;;;;;;;;15.91;55.46;99931.69;5115524;28;20360;-37
2021/05/22 03:05:06;;;;;;;;;;;;;;;15.55;55.88;99935.38;5113256;28;20333;-38
2021/05/22 03:07:32;;;;;;;;;;;;;;;15.38;56.56;99940.59;5113860;28;19918;-38
2021/05/22 03:09:58;;;;;;;;;;;;;;;15.07;57.87;99941.69;5114814;28;20010;-36
2021/05/22 03:12:25;;;;;;;;;;;;;;;15.34;56.87;99939.41;5106567;28;19920;-38
2021/05/22 03:14:50;;;;;;;;;;;;;;;15.41;56.59;99942.81;5093033;28;20444;-37
2021/05/22 03:17:15;;;;;;;;;;;;;;;15.50;56.61;99943.28;5094445;28;20006;-37
2021/05/22 03:19:41;;;;;;;;;;;;;;;15.57;56.00;99939.47;5094741;28;19916;-37
2021/05/22 03:22:06;;;;;;;;;;;;;;;15.56;56.70;99947.75;5094201;28;20003;-38
2021/05/22 03:24:31;;;;;;;;;;;;;;;15.44;56.97;99953.09;5114390;28;19915;-38
2021/05/22 03:26:57;;;;;;;;;;;;;;;15.25;57.57;99950.47;5114726;28;19981;-37
2021/05/22 03:29:22;;;;;;;;;;;;;;;15.14;57.66;99953.13;5114974;28;20352;-38
2021/05/22 03:31:48;;;;;;;;;;;;;;;15.20;57.50;99957.56;5114649;28;19934;-38
2021/05/22 03:34:13;;;;;;;;;;;;;;;15.24;57.44;99959.56;5114746;28;19916;-38
2021/05/22 03:36:38;;;;;;;;;;;;;;;15.31;57.49;99956.78;5114293;28;19916;-36
2021/05/22 03:39:04;;;;;;;;;;;;;;;15.33;57.35;99965.41;5114568;28;19915;-37
2021/05/22 03:41:29;;;;;;;;;;;;;;;15.66;56.95;99971.31;5114524;28;20412;-37
2021/05/22 03:43:54;;;;;;;;;;;;;;;15.81;56.50;99969.84;5114971;28;19912;-37
2021/05/22 03:46:20;;;;;;;;;;;;;;;16.27;55.23;99975.44;5114488;28;20269;-37
2021/05/22 03:48:45;;;;;;;;;;;;;;;16.79;53.00;99980.81;5114415;28;20010;-37
2021/05/22 03:51:10;;;;;;;;;;;;;;;16.85;52.11;99980.94;5114416;28;20265;-37
2021/05/22 03:53:35;;;;;;;;;;;;;;;16.70;52.26;99990.31;5114258;28;19955;-38
2021/05/22 03:56:01;;;;;;;;;;;;;;;17.25;51.08;99985.44;5114375;28;20002;-38
2021/05/22 03:58:26;;;;;;;;;;;;;;;17.51;50.16;99987.53;5114016;28;19916;-38
2021/05/22 04:00:51;;;;;;;;;;;;;;;18.14;48.14;99985.59;5114051;28;19912;-37
2021/05/22 04:03:16;;;;;;;;;;;;;;;18.70;46.56;99977.41;5113747;28;20316;-38
2021/05/22 04:05:42;;;;;;;;;;;;;;;19.03;46.07;99972.97;5114061;28;19911;-38
2021/05/22 04:08:07;;;;;;;;;;;;;;;19.19;45.22;99973.13;5113844;28;19937;-38
2021/05/22 04:10:32;;;;;;;;;;;;;;;19.48;44.71;99979.06;5113969;28;19911;-38
2021/05/22 04:12:58;;;;;;;;;;;;;;;19.70;43.46;99976.25;5100431;28;19912;-39
2021/05/22 04:15:23;;;;;;;;;;;;;;;20.13;43.74;99973.63;5093472;28;19923;-39
2021/05/22 04:17:48;;;;;;;;;;;;;;;20.49;41.75;99972.72;5093531;28;19916;-37
2021/05/22 04:20:14;;;;;;;;;;;;;;;20.85;41.78;99972.91;5093609;28;20007;-38
2021/05/22 04:22:39;;;;;;;;;;;;;;;20.94;41.58;99964.25;5093304;28;19954;-38
2021/05/22 04:25:04;;;;;;;;;;;;;;;20.72;42.04;99964.47;5093405;28;19912;-38
2021/05/22 04:27:30;;;;;;;;;;;;;;;20.42;42.01;99974.06;5093099;28;20291;-38
2021/05/22 04:29:55;;;;;;;;;;;;;;;21.23;40.85;99970.03;5092980;28;19911;-38
2021/05/22 04:32:20;;;;;;;;;;;;;;;21.46;39.82;99968.72;5092837;28;20062;-38
2021/05/22 04:34:46;;;;;;;;;;;;;;;21.83;39.54;99973.03;5093049;28;19912;-38
2021/05/22 04:37:11;;;;;;;;;;;;;;;21.53;40.04;99974.66;5093085;28;19917;-37
2021/05/22 04:39:36;;;;;;;;;;;;;;;22.23;39.41;99985.69;5093103;28;19974;-39
2021/05/22 04:42:02;;;;;;;;;;;;;;;22.79;37.93;99990.13;5093100;28;19912;-38
2021/05/22 04:44:28;;;;;;;;;;;;;;;23.24;36.97;99990.16;5093494;28;19912;-39
2021/05/22 04:46:53;;;;;;;;;;;;;;;23.57;36.22;99990.47;5094058;28;19999;-38
2021/05/22 04:49:18;;;;;;;;;;;;;;;24.05;35.55;99995.25;5094000;28;19912;-39
2021/05/22 04:51:45;;;;;;;;;;;;;;;23.92;35.52;99985.88;5093412;28;19981;-38
2021/05/22 04:54:10;;;;;;;;;;;;;;;24.32;35.10;99997.41;5093278;28;19913;-42
2021/05/22 04:56:36;;;;;;;;;;;;;;;24.76;33.80;99999.91;5093119;28;19923;-38
2021/05/22 04:59:01;;;;;;;;;;;;;;;25.25;32.76;100000.63;5092679;28;19919;-38
2021/05/22 05:01:26;;;;;;;;;;;;;;;25.08;33.17;99998.41;5093206;28;19912;-39
2021/05/22 05:03:52;;;;;;;;;;;;;;;25.50;32.54;100004.06;5092375;28;19970;-38
2021/05/22 05:06:17;;;;;;;;;;;;;;;25.64;32.50;100004.91;5091924;28;20257;-38
2021/05/22 05:08:42;;;;;;;;;;;;;;;25.86;32.43;100011.66;5091770;28;19919;-39
2021/05/22 05:11:08;;;;;;;;;;;;;;;26.03;31.35;100017.38;5091672;28;19935;-38
2021/05/22 05:13:33;;;;;;;;;;;;;;;26.07;31.85;100015.66;5091027;28;19967;-38
2021/05/22 05:15:59;;;;;;;;;;;;;;;25.58;32.20;100025.19;5091761;28;19912;-38
2021/05/22 05:18:24;;;;;;;;;;;;;;;25.50;32.67;100028.59;5092114;28;19924;-38
2021/05/22 05:20:49;;;;;;;;;;;;;;;25.38;33.00;100041.84;5091465;28;19955;-38
2021/05/22 05:23:14;;;;;;;;;;;;;;;25.00;33.27;100033.63;5091408;28;19932;-37
2021/05/22 05:25:40;;;;;;;;;;;;;;;25.51;32.66;100043.81;5091506;28;19916;-38
2021/05/22 05:28:05;;;;;;;;;;;;;;;25.96;32.26;100046.94;5091542;28;19916;-38
2021/05/22 05:30:30;;;;;;;;;;;;;;;26.20;32.01;100035.06;5091556;28;19912;-38
2021/05/22 05:32:56;;;;;;;;;;;;;;;25.44;33.22;100035.22;5091276;28;19970;-38
2021/05/22 05:35:21;;;;;;;;;;;;;;;25.57;33.02;100034.47;5090865;28;20005;-38
2021/05/22 05:37:46;;;;;;;;;;;;;;;26.23;32.14;100037.19;5091044;28;19916;-39
2021/05/22 05:40:12;;;;;;;;;;;;;;;26.31;32.23;100031.88;5091229;28;19961;-40
2021/05/22 05:42:38;;;;;;;;;;;;;;;26.40;32.27;100031.97;5089769;28;19935;-38
2021/05/22 05:45:04;;;;;;;;;;;;;;;26.32;32.38;100033.47;5091541;28;19912;-38
2021/05/22 05:47:29;;;;;;;;;;;;;;;26.57;32.55;100038.75;5091399;28;19912;-38
2021/05/22 05:49:54;;;;;;;;;;;;;;;27.34;31.15;100023.50;5091134;28;20411;-51
2021/05/22 05:52:20;;;;;;;;;;;;;;;27.17;31.54;100027.69;5077070;28;20006;-51
2021/05/22 05:54:45;;;;;;;;;;;;;;;28.05;30.32;100020.97;5080912;28;19981;-49
2021/05/22 05:57:10;;;;;;;;;;;;;;;28.87;29.44;100024.19;5090683;28;19916;-51
2021/05/22 05:59:36;;;;;;;;;;;;;;;29.07;28.98;100022.75;5090455;28;20027;-51
2021/05/22 06:02:01;;;;;;;;;;;;;;;29.49;28.31;100022.31;5090670;28;19980;-52
2021/05/22 06:04:26;;;;;;;;;;;;;;;29.41;28.30;100023.91;5090651;28;19919;-52
2021/05/22 06:06:51;;;;;;;;;;;;;;;29.81;27.42;100029.22;5090262;28;20304;-50
2021/05/22 06:09:17;;;;;;;;;;;;;;;30.17;27.12;100028.78;5090374;28;19951;-50
2021/05/22 06:11:42;;;;;;;;;;;;;;;30.11;27.04;100041.09;5090286;28;19955;-51
2021/05/22 06:14:14;;;;;;;;;;;;;;;30.31;27.17;100033.25;5090190;28;20283;-52
2021/05/22 06:16:40;;;;;;;;;;;;;;;29.68;27.98;100030.97;5088799;28;19922;-51
2021/05/22 06:19:06;;;;;;;;;;;;;;;29.10;28.32;100027.59;5090463;28;19986;-51
2021/05/22 06:21:35;;;;;;;;;;;;;;;29.44;27.35;100024.09;5089136;28;20402;-52
2021/05/22 06:24:00;;;;;;;;;;;;;;;27.83;29.69;100022.56;5106323;28;19989;-51
2021/05/22 06:26:25;;;;;;;;;;;;;;;29.00;28.18;100025.19;5115377;28;19925;-52
2021/05/22 06:28:50;;;;;;;;;;;;;;;29.40;27.70;100023.13;5115273;28;19912;-52
2021/05/22 06:31:16;;;;;;;;;;;;;;;29.33;28.09;100017.31;5115011;28;19995;-51
2021/05/22 06:33:41;;;;;;;;;;;;;;;29.35;27.70;100022.47;5115279;28;19919;-53
2021/05/22 06:36:06;;;;;;;;;;;;;;;29.90;27.30;100021.78;5114729;28;19912;-52
2021/05/22 06:38:32;;;;;;;;;;;;;;;30.66;26.09;100022.97;5114762;28;20331;-50
2021/05/22 06:40:57;;;;;;;;;;;;;;;30.99;26.18;100028.59;5096889;28;19912;-52
2021/05/22 06:43:22;;;;;;;;;;;;;;;31.32;26.30;100032.53;5094260;28;19916;-53
2021/05/22 06:48:31;;;;;;;;;;;;;;;30.75;26.14;100026.47;5094048;28;19935;-53
2021/05/22 06:50:57;;;;;;;;;;;;;;;31.22;25.65;100027.47;5094126;28;20344;-52
2021/05/22 06:53:22;;;;;;;;;;;;;;;31.83;24.90;100033.22;5093959;28;19913;-52
2021/05/22 06:55:48;;;;;;;;;;;;;;;32.07;24.44;100034.47;5093364;28;20244;-51
2021/05/22 06:58:13;;;;;;;;;;;;;;;31.48;24.92;100027.28;5093624;28;19955;-52
2021/05/22 07:00:38;;;;;;;;;;;;;;;31.63;24.80;100023.09;5093315;28;19912;-53
2021/05/22 07:03:04;;;;;;;;;;;;;;;32.18;23.87;100021.88;5093766;28;19916;-50
2021/05/22 07:05:29;;;;;;;;;;;;;;;32.92;24.03;100025.44;5093912;28;19954;-52
2021/05/22 07:07:55;;;;;;;;;;;;;;;33.40;22.80;100025.66;5093524;28;19975;-52
2021/05/22 07:10:20;;;;;;;;;;;;;;;33.92;22.99;100017.63;5093310;28;19943;-52
2021/05/22 07:12:46;;;;;;;;;;;;;;;34.42;21.90;100021.66;5093693;28;19948;-52
2021/05/22 07:15:11;;;;;;;;;;;;;;;34.12;21.47;100015.75;5093786;28;20010;-52
2021/05/22 07:17:37;;;;;;;;;;;;;;;33.38;21.94;100014.19;5093479;28;20071;-52
2021/05/22 07:20:03;;;;;;;;;;;;;;;31.69;23.83;100022.53;5093470;28;19912;-52
2021/05/22 07:22:28;;;;;;;;;;;;;;;31.01;24.25;100014.53;5093591;28;20368;-51
2021/05/22 07:24:53;;;;;;;;;;;;;;;31.02;24.82;100009.84;5093570;28;20069;-52
2021/05/22 07:27:19;;;;;;;;;;;;;;;31.73;24.38;100011.66;5093119;28;19912;-50
2021/05/22 07:29:50;;;;;;;;;;;;;;;32.79;23.29;100010.06;5092927;28;19916;-51
2021/05/22 07:32:15;;;;;;;;;;;;;;;32.67;21.98;99991.63;5093061;28;19920;-50
2021/05/22 07:34:40;;;;;;;;;;;;;;;33.15;21.84;100007.59;5093112;28;19912;-51
2021/05/22 07:37:06;;;;;;;;;;;;;;;33.72;22.34;100009.22;5092976;28;19927;-53
2021/05/22 07:39:31;;;;;;;;;;;;;;;34.18;21.64;100014.38;5093098;28;20326;-52
2021/05/22 07:41:56;;;;;;;;;;;;;;;32.89;23.02;100022.56;5093156;28;19912;-52
2021/05/22 07:44:22;;;;;;;;;;;;;;;33.44;22.34;100026.56;5091242;28;19970;-52
2021/05/22 07:46:47;;;;;;;;;;;;;;;33.51;21.54;100017.72;5092860;28;19913;-52
2021/05/22 07:49:12;;;;;;;;;;;;;;;33.63;21.70;100014.06;5072434;28;19987;-52
2021/05/22 07:51:39;;;;;;;;;;;;;;;31.63;23.42;100004.66;5072579;28;19930;-52
2021/05/22 07:54:05;;;;;;;;;;;;;;;32.10;23.95;100007.06;5072588;28;19920;-39
2021/05/22 07:56:30;;;;;;;;;;;;;;;32.88;23.59;100007.16;5090174;28;20263;-39
2021/05/22 07:58:55;;;;;;;;;;;;;;;33.38;22.12;99999.59;5092674;28;19973;-39
2021/05/22 08:01:20;;;;;;;;;;;;;;;33.71;21.50;99990.28;5083775;28;20411;-38
2021/05/22 08:03:46;;;;;;;;;;;;;;;33.97;21.20;99987.00;5080894;28;19912;-39
2021/05/22 08:06:11;;;;;;;;;;;;;;;33.96;21.63;99988.94;5091416;28;19962;-39
2021/05/22 08:08:36;;;;;;;;;;;;;;;33.62;21.36;99982.91;5092665;28;19922;-39
2021/05/22 08:11:02;;;;;;;;;;;;;;;33.42;21.84;99983.97;5092607;28;19912;-38
2021/05/22 08:13:32;;;;;;;;;;;;;;;31.95;24.11;99983.75;5091139;28;20007;-39
2021/05/22 08:15:57;;;;;;;;;;;;;;;32.25;23.14;99985.50;5092998;28;19935;-39
2021/05/22 08:18:23;;;;;;;;;;;;;;;32.22;23.39;99981.50;5092799;28;20380;-39
2021/05/22 08:20:48;;;;;;;;;;;;;;;32.78;21.86;99977.34;5092579;28;19912;-39
2021/05/22 08:23:13;;;;;;;;;;;;;;;32.72;22.45;99985.06;5101575;28;19928;-38
2021/05/22 08:25:39;;;;;;;;;;;;;;;32.80;22.65;99980.56;5112975;28;20439;-39
2021/05/22 08:28:04;;;;;;;;;;;;;;;30.76;24.43;99977.81;5095822;28;19916;-39
2021/05/22 08:30:29;;;;;;;;;;;;;;;32.29;23.24;99983.69;5092577;28;19912;-39
2021/05/22 08:32:55;;;;;;;;;;;;;;;32.70;23.05;99982.66;5092272;28;19999;-39
2021/05/22 08:35:20;;;;;;;;;;;;;;;33.08;22.34;99975.09;5092554;28;19919;-38
2021/05/22 08:37:45;;;;;;;;;;;;;;;33.36;22.65;99963.28;5091953;28;20014;-38
2021/05/22 08:40:11;;;;;;;;;;;;;;;33.39;22.67;99960.63;5092152;28;20002;-39
2021/05/22 08:42:36;;;;;;;;;;;;;;;33.94;21.81;99949.88;5091922;28;20046;-39
2021/05/22 08:45:06;;;;;;;;;;;;;;;34.43;21.09;99949.47;5091468;28;20387;-39
2021/05/22 08:47:31;;;;;;;;;;;;;;;34.90;21.09;99944.19;5090524;28;19919;-39
2021/05/22 08:49:56;;;;;;;;;;;;;;;34.96;20.89;99946.31;5091298;28;19912;-40
2021/05/22 08:52:23;;;;;;;;;;;;;;;33.33;21.69;99941.94;5091831;28;19919;-39
2021/05/22 08:54:48;;;;;;;;;;;;;;;32.10;23.36;99946.53;5091791;28;20343;-39
2021/05/22 08:57:13;;;;;;;;;;;;;;;32.88;22.60;99946.56;5091603;28;19934;-40
2021/05/22 08:59:41;;;;;;;;;;;;;;;33.50;21.95;99945.16;5091794;28;19995;-39
2021/05/22 09:02:07;;;;;;;;;;;;;;;32.83;22.94;99949.56;5091382;28;19923;-39
2021/05/22 09:04:32;;;;;;;;;;;;;;;32.68;22.53;99946.38;5098174;28;19924;-39
2021/05/22 09:07:01;;;;;;;;;;;;;;;32.54;22.53;99946.72;5099696;28;19915;-40
2021/05/22 09:09:39;;;;;;;;;;;;;;;32.87;22.19;99936.69;5098588;28;19923;-40
2021/05/22 09:12:05;;;;;;;;;;;;;;;32.23;22.71;99944.56;5098029;28;20709;-39
2021/05/22 09:14:40;;;;;;;;;;;;;;;32.40;22.43;99945.47;5093509;28;20061;-39
2021/05/22 09:17:08;;;;;;;;;;;;;;;32.56;22.52;99940.88;5091566;28;19957;-40
2021/05/22 09:19:33;;;;;;;;;;;;;;;32.37;22.84;99930.47;5092040;28;19912;-39
2021/05/22 09:22:10;;;;;;;;;;;;;;;32.33;22.92;99937.81;5091602;28;19918;-38
2021/05/22 09:24:35;;;;;;;;;;;;;;;31.24;23.04;99943.53;5071549;28;20005;-39
2021/05/22 09:27:08;;;;;;;;;;;;;;;29.42;24.50;99938.63;5112218;27;19912;-39
2021/05/22 09:29:33;;;;;;;;;;;;;;;29.66;25.69;99939.22;5090803;28;20307;-39
2021/05/22 09:32:04;;;;;;;;;;;;;;;30.28;24.45;99943.38;5088845;28;19912;-38
2021/05/22 09:34:30;;;;;;;;;;;;;;;31.68;23.75;99946.69;5089662;28;19918;-38
2021/05/22 09:36:55;;;;;;;;;;;;;;;32.98;22.41;99937.81;5089526;28;19920;-38
2021/05/22 09:39:21;;;;;;;;;;;;;;;33.54;21.39;99927.94;5090289;28;20342;-40
2021/05/22 09:41:48;;;;;;;;;;;;;;;33.53;20.90;99918.84;5090122;28;20019;-39
2021/05/22 09:44:18;;;;;;;;;;;;;;;33.23;21.67;99918.44;5090585;28;19912;-40
2021/05/22 09:46:43;;;;;;;;;;;;;;;32.23;23.19;99910.72;5089114;28;19985;-39
2021/05/22 09:49:08;;;;;;;;;;;;;;;33.15;22.12;99908.34;5090662;28;19915;-38
2021/05/22 09:51:35;;;;;;;;;;;;;;;33.89;21.20;99906.78;5091192;28;19916;-40
2021/05/22 09:54:00;;;;;;;;;;;;;;;32.63;21.98;99904.50;5091200;28;20316;-40
2021/05/22 09:56:25;;;;;;;;;;;;;;;33.29;20.92;99898.53;5090545;28;19912;-39
2021/05/22 09:58:57;;;;;;;;;;;;;;;32.95;21.30;99894.41;5090259;28;19923;-39
2021/05/22 10:01:25;;;;;;;;;;;;;;;31.96;21.94;99888.25;5090256;28;19994;-38
2021/05/22 10:03:50;;;;;;;;;;;;;;;31.48;22.30;99885.09;5090605;28;19912;-39
2021/05/22 10:06:16;;;;;;;;;;;;;;;32.24;23.07;99871.84;5090611;28;20272;-39
2021/05/22 10:08:41;;;;;;;;;;;;;;;33.28;21.83;99872.13;5090727;28;19922;-39
2021/05/22 10:11:07;;;;;;;;;;;;;;;32.31;23.15;99872.09;5090857;28;19919;-39
2021/05/22 10:13:32;;;;;;;;;;;;;;;32.68;22.51;99868.47;5090477;28;19970;-38
2021/05/22 10:16:01;;;;;;;;;;;;;;;32.10;22.63;99863.97;5090375;28;19913;-39
2021/05/22 10:18:27;;;;;;;;;;;;;;;32.86;21.17;99867.03;5090105;28;19916;-39
2021/05/22 10:20:52;;;;;;;;;;;;;;;33.19;19.94;99862.41;5090170;28;19961;-39
2021/05/22 10:23:18;;;;;;;;;;;;;;;33.47;19.48;99862.34;5095560;28;19916;-39
2021/05/22 10:25:43;;;;;;;;;;;;;;;33.14;20.13;99855.19;5110360;28;19912;-39
2021/05/22 10:28:09;;;;;;;;;;;;;;;33.23;20.57;99853.06;5109353;28;19918;-39
2021/05/22 10:30:35;;;;;;;;;;;;;;;32.97;19.40;99844.47;5090015;28;19918;-39
2021/05/22 10:33:01;;;;;;;;;;;;;;;32.51;20.10;99834.50;5087982;28;19984;-39
2021/05/22 10:35:26;;;;;;;;;;;;;;;32.89;19.75;99824.97;5089617;28;20393;-40
2021/05/22 10:37:52;;;;;;;;;;;;;;;32.96;19.38;99832.66;5089695;28;19939;-40
2021/05/22 10:40:18;;;;;;;;;;;;;;;32.68;19.72;99825.19;5089292;28;19919;-40
2021/05/22 10:42:44;;;;;;;;;;;;;;;31.58;21.54;99820.59;5089242;28;19912;-39
2021/05/22 10:45:25;;;;;;;;;;;;;;;30.66;21.63;99811.53;5089507;28;20002;-39
2021/05/22 10:47:50;;;;;;;;;;;;;;;29.50;22.89;99797.22;5089819;28;19912;-39
2021/05/22 10:50:35;;;;;;;;;;;;;;;30.16;22.58;99802.19;5089880;28;19912;-39
2021/05/22 10:53:16;;;;;;;;;;;;;;;29.78;22.54;99814.06;5085417;28;19912;-39
2021/05/22 10:55:41;;;;;;;;;;;;;;;29.55;22.88;99807.19;5090493;28;19908;-39
2021/05/22 10:58:06;;;;;;;;;;;;;;;30.50;21.63;99794.06;5090540;28;19994;-39
2021/05/22 11:00:32;;;;;;;;;;;;;;;30.49;21.23;99790.50;5076795;28;19952;-40
2021/05/22 11:03:06;;;;;;;;;;;;;;;31.26;21.67;99784.56;5070123;28;19916;-39
2021/05/22 11:05:32;;;;;;;;;;;;;;;31.91;19.72;99775.66;5070199;28;20423;-40
2021/05/22 11:08:04;;;;;;;;;;;;;;;32.71;19.31;99777.66;5069375;28;20299;-38
2021/05/22 11:10:51;;;;;;;;;;;;;;;32.96;19.03;99785.81;5070000;28;20003;-39
2021/05/22 11:13:20;;;;;;;;;;;;;;;33.03;18.81;99791.47;5073118;28;19920;-40
2021/05/22 11:15:51;;;;;;;;;;;;;;;33.77;19.15;99790.19;5072892;28;19921;-38
2021/05/22 11:18:21;;;;;;;;;;;;;;;34.35;18.82;99789.50;5072765;28;19920;-39
2021/05/22 11:21:07;;;;;;;;;;;;;;;35.05;18.09;99781.03;5072346;28;19912;-39
2021/05/22 11:23:50;;;;;;;;;;;;;;;34.86;18.72;99778.28;5090251;28;19912;-39
2021/05/22 11:26:16;;;;;;;;;;;;;;;35.35;18.36;99774.03;5112926;28;19923;-40
2021/05/22 11:28:50;;;;;;;;;;;;;;;34.64;18.01;99766.03;5113036;28;20010;-39
2021/05/22 11:31:24;;;;;;;;;;;;;;;33.90;18.63;99775.13;5112456;28;19920;-39
2021/05/22 11:33:49;;;;;;;;;;;;;;;33.86;18.60;99763.22;5112483;28;19954;-39
2021/05/22 11:36:14;;;;;;;;;;;;;;;33.22;19.22;99754.19;5113793;28;19958;-39
2021/05/22 11:38:40;;;;;;;;;;;;;;;31.84;20.03;99751.50;5113125;28;20433;-39
2021/05/22 11:41:06;;;;;;;;;;;;;;;31.81;20.62;99756.88;5097287;28;19965;-39
2021/05/22 11:43:31;;;;;;;;;;;;;;;30.85;20.96;99730.56;5092838;28;19920;-39
2021/05/22 11:46:01;;;;;;;;;;;;;;;31.52;20.29;99736.75;5092994;28;19919;-39
2021/05/22 11:48:33;;;;;;;;;;;;;;;32.06;20.08;99732.91;5091770;28;19966;-39
2021/05/22 11:50:58;;;;;;;;;;;;;;;31.45;20.90;99723.53;5093009;28;19919;-38
2021/05/22 11:53:24;;;;;;;;;;;;;;;31.90;20.27;99719.06;5093054;28;19912;-40
2021/05/22 11:55:55;;;;;;;;;;;;;;;31.67;20.94;99710.50;5092188;28;19913;-39
2021/05/22 11:58:21;;;;;;;;;;;;;;;31.25;20.84;99713.47;5092913;28;19927;-39
2021/05/22 12:00:46;;;;;;;;;;;;;;;30.57;21.79;99698.22;5092947;28;19912;-39
2021/05/22 12:03:21;;;;;;;;;;;;;;;30.10;22.40;99702.03;5093200;28;19958;-38
2021/05/22 12:05:46;;;;;;;;;;;;;;;30.64;21.48;99697.69;5092702;28;19912;-38
2021/05/22 12:08:18;;;;;;;;;;;;;;;30.92;21.71;99686.88;5091238;28;20506;-38
2021/05/22 12:10:43;;;;;;;;;;;;;;;31.18;21.25;99689.31;5093117;28;20006;-39
2021/05/22 12:13:09;;;;;;;;;;;;;;;31.76;21.29;99683.69;5093259;28;20006;-39
2021/05/22 12:15:35;;;;;;;;;;;;;;;32.75;20.17;99681.34;5092958;28;20107;-40
2021/05/22 12:18:01;;;;;;;;;;;;;;;32.94;20.35;99675.13;5084931;28;19927;-39
2021/05/22 12:20:29;;;;;;;;;;;;;;;32.68;19.14;99667.38;5076913;28;19913;-40
2021/05/22 12:22:58;;;;;;;;;;;;;;;32.80;19.09;99666.50;5098435;28;19919;-40
2021/05/22 12:25:23;;;;;;;;;;;;;;;32.98;19.86;99666.97;5090914;28;19958;-39
2021/05/22 12:27:49;;;;;;;;;;;;;;;31.78;20.89;99667.63;5073287;28;19916;-39
2021/05/22 12:30:15;;;;;;;;;;;;;;;31.32;21.23;99659.53;5072934;28;20303;-39
2021/05/22 12:32:41;;;;;;;;;;;;;;;31.65;20.52;99652.31;5073404;28;19919;-38
2021/05/22 12:35:08;;;;;;;;;;;;;;;32.19;20.68;99656.59;5071454;28;19912;-39
2021/05/22 12:37:33;;;;;;;;;;;;;;;31.28;21.70;99666.88;5072752;28;20352;-38
2021/05/22 12:40:00;;;;;;;;;;;;;;;31.38;21.34;99647.16;5090889;28;19919;-38
2021/05/22 12:42:26;;;;;;;;;;;;;;;32.24;20.94;99646.16;5092820;28;20207;-38